Chicago Bridge — H9NR — position and weather

sailwx.info

Track history (hours):
 
Tides and Currents Weather Stations Pressure Air Temp Water Temp Dewpoint Dewpoint Depression Visibility Wind Speed Wind Dir Waves Ship Positions

Chicago Bridge

Last reported at 2015-May-24 01:07 UTC. Time now 2015-May-24 13:15 UTC.
Position N 23°45' E 118°17'.

Length 279 m; draft 10.7 m.

Type: Ship (hazmat cat B). MMSI: 352018000.

Date/timePositionNaut miles runAvg speedWind from/ knotsBaromVisibWave heightAir tempDewpointWater temp
2015-May-24 01:07N 23°45' E 118°17'814.2
2015-May-24 00:34N 23°51' E 118°23'53414.0
2015-May-22 10:33N 30°10' E 125°24'1313.3
2015-May-22 09:33N 30°18' E 125°36'3413.9
2015-May-22 07:04N 30°42' E 126°05'1113.8
2015-May-22 06:18N 30°51' E 126°13'24114.1
2015-May-21 13:12N 33°52' E 129°20'1615.1
2015-May-21 12:08N 34°04' E 129°33'914.8
2015-May-21 11:32N 34°11' E 129°40'3115.1
2015-May-21 09:30N 34°34' E 130°05'3113.7
2015-May-21 07:14N 34°56' E 130°30'  
Track history (hours):
 
Tides and Currents Weather Stations Pressure Air Temp Water Temp Dewpoint Dewpoint Depression Visibility Wind Speed Wind Dir Waves Ship Positions

Chicago Bridge

Last reported at 2015-May-24 01:07 UTC. Time now 2015-May-24 13:15 UTC.
Position N 23°45' E 118°17'.

Length 279 m; draft 10.7 m.

Type: Ship (hazmat cat B). MMSI: 352018000.

Date/timePositionNaut miles runAvg speedWind from/ knotsBaromVisibWave heightAir tempDewpointWater temp
2015-May-24 01:07N 23°45' E 118°17'814.2
2015-May-24 00:34N 23°51' E 118°23'53414.0
2015-May-22 10:33N 30°10' E 125°24'1313.3
2015-May-22 09:33N 30°18' E 125°36'3413.9
2015-May-22 07:04N 30°42' E 126°05'1113.8
2015-May-22 06:18N 30°51' E 126°13'24114.1
2015-May-21 13:12N 33°52' E 129°20'1615.1
2015-May-21 12:08N 34°04' E 129°33'914.8
2015-May-21 11:32N 34°11' E 129°40'3115.1
2015-May-21 09:30N 34°34' E 130°05'3113.7
2015-May-21 07:14N 34°56' E 130°30'  

Dump ship's entire track history